createdAt,value
2018-09-08T18:52:57.815Z,5.83
2018-09-08T18:55:26.153Z,5.33
2018-09-08T18:57:54.394Z,6.67
2018-09-08T19:00:22.908Z,6.23
2018-09-08T19:02:51.718Z,4.97
2018-09-08T19:05:21.031Z,7.27
2018-09-08T19:07:49.405Z,8.10
2018-09-08T19:10:17.845Z,8.10
2018-09-08T19:12:46.194Z,11.00
2018-09-08T19:15:16.826Z,9.30
2018-09-08T19:17:45.419Z,8.70
2018-09-08T19:20:45.756Z,8.83
2018-09-08T19:23:14.116Z,9.00
2018-09-08T19:25:42.488Z,9.60
2018-09-08T19:28:10.830Z,9.90
2018-09-08T19:30:39.242Z,9.77
2018-09-08T19:33:08.887Z,9.67
2018-09-08T19:35:39.613Z,9.43
2018-09-08T19:38:08.735Z,9.23
2018-09-08T19:40:42.268Z,9.93
2018-09-08T19:43:10.637Z,10.10
2018-09-08T19:45:39.014Z,10.10
2018-09-08T19:48:13.583Z,10.40
2018-09-08T19:50:42.024Z,10.23
2018-09-08T19:53:15.929Z,11.50
2018-09-08T19:55:44.860Z,10.70
2018-09-08T19:58:18.729Z,10.67
2018-09-08T20:00:47.509Z,10.73
2018-09-08T20:03:16.393Z,10.53
2018-09-08T20:05:44.890Z,10.73
2018-09-08T20:08:13.913Z,10.30
2018-09-08T20:10:43.723Z,9.87
2018-09-08T20:13:12.681Z,10.30
2018-09-08T20:15:41.067Z,11.80
2018-09-08T20:18:10.278Z,12.00
2018-09-08T20:20:38.639Z,10.93
2018-09-08T20:23:07.034Z,10.97
2018-09-08T20:25:35.538Z,11.80
2018-09-08T20:28:05.149Z,10.90
2018-09-08T20:30:33.563Z,11.00
2018-09-08T20:33:02.149Z,10.63
2018-09-08T20:35:30.685Z,10.90
2018-09-08T20:37:59.218Z,10.07
2018-09-08T20:40:27.660Z,10.80
2018-09-08T20:42:56.564Z,9.90
2018-09-08T20:45:24.948Z,10.80
2018-09-08T20:47:53.396Z,9.90
2018-09-08T20:50:21.842Z,11.17
2018-09-08T20:52:50.164Z,10.50
2018-09-08T20:55:18.567Z,9.97
2018-09-08T20:57:47.108Z,10.00
2018-09-08T21:00:15.520Z,10.17
2018-09-08T21:02:43.871Z,9.93
2018-09-08T21:05:12.319Z,10.97
2018-09-08T21:07:40.788Z,10.27
2018-09-08T21:10:09.300Z,11.10
2018-09-08T21:12:38.451Z,10.10
2018-09-08T21:15:07.204Z,10.43
2018-09-08T21:17:35.790Z,10.30
2018-09-08T21:20:04.290Z,10.83
2018-09-08T21:22:32.737Z,10.53
2018-09-08T21:25:01.157Z,10.23
2018-09-08T21:27:29.591Z,10.70
2018-09-08T21:29:57.978Z,9.80
2018-09-08T21:32:26.395Z,11.37
2018-09-08T21:34:54.761Z,9.97
2018-09-08T21:37:23.174Z,10.10
2018-09-08T21:39:52.021Z,10.27
2018-09-08T21:42:20.434Z,11.50
2018-09-08T21:44:48.879Z,11.77
2018-09-08T21:47:17.297Z,11.10
2018-09-08T21:49:45.641Z,12.67
2018-09-08T21:52:14.075Z,11.77
2018-09-08T21:54:42.516Z,13.07
2018-09-08T21:57:10.936Z,11.20
2018-09-08T21:59:39.329Z,10.67
2018-09-08T22:02:07.738Z,12.80
2018-09-08T22:04:36.126Z,10.90
2018-09-08T22:07:05.274Z,11.80
2018-09-08T22:09:34.350Z,11.30
2018-09-08T22:12:03.267Z,11.40
2018-09-08T22:14:32.478Z,12.20
2018-09-08T22:17:00.877Z,12.63
2018-09-08T22:19:29.221Z,11.17
2018-09-08T22:21:57.596Z,11.50
2018-09-08T22:24:26.013Z,10.73
2018-09-08T22:26:54.378Z,12.07
2018-09-08T22:29:22.803Z,11.93
2018-09-08T22:31:51.226Z,13.00
2018-09-08T22:34:19.659Z,11.20
2018-09-08T22:36:48.012Z,11.43
2018-09-08T22:39:16.489Z,11.50
2018-09-08T22:41:44.911Z,11.20
2018-09-08T22:44:13.299Z,11.23
2018-09-08T22:46:41.761Z,12.37
2018-09-08T22:49:10.133Z,11.77
2018-09-08T22:51:38.579Z,10.53
2018-09-08T22:54:07.225Z,10.93
2018-09-08T22:56:35.728Z,11.10
2018-09-08T22:59:04.127Z,11.10
2018-09-08T23:01:32.497Z,12.00
2018-09-08T23:04:00.953Z,12.50
2018-09-08T23:06:29.278Z,11.60
2018-09-08T23:08:57.716Z,13.57
2018-09-08T23:11:26.015Z,13.77
2018-09-08T23:13:54.422Z,12.07
2018-09-08T23:16:22.866Z,13.00
2018-09-08T23:18:51.260Z,12.37
2018-09-08T23:21:19.686Z,14.03
2018-09-08T23:23:48.088Z,12.17
2018-09-08T23:26:16.444Z,13.47
2018-09-08T23:28:44.831Z,13.10
2018-09-08T23:31:13.586Z,13.57
2018-09-08T23:33:41.960Z,14.97
2018-09-08T23:36:10.349Z,14.87
2018-09-08T23:38:38.900Z,13.97
2018-09-08T23:41:07.324Z,14.13
2018-09-08T23:43:35.671Z,13.13
2018-09-08T23:46:04.073Z,13.80
2018-09-08T23:48:32.493Z,13.03
2018-09-08T23:51:00.989Z,13.53
2018-09-08T23:53:29.357Z,12.80
2018-09-08T23:55:57.782Z,12.20
2018-09-08T23:58:26.150Z,12.50
